Terminal Aerodrome Forecast
Issued by NWS

Home | Current Version | Previous Version | Text Only | Print | Product List | Glossary On
Versions: 1 2 3 4 5 6 7 8 9 10 11 12 13 14 15 16
000
FTUS46 KMTR 220500
TAFMRY
TAF
KMRY 220520Z 2206/2306 VRB03KT P6SM BKN007 OVC010
     FM221000 00000KT 6SM BR OVC007
     FM221900 30005KT P6SM SCT007 OVC012
     FM230300 VRB03KT P6SM FEW007 BKN011=

USA.gov is the U.S. government's official web portal to all federal, state and local government web resources and services.